KSNY

Sidney Municipal / Lloyd W Carr Field Airport

Sidney, Nebraska, USA
METAR KSNY 220653Z AUTO 18016KT 10SM CLR 12/06 A3024 RMK AO2 SLP209 T01170061 402330033
Observed Flight Rules
Sep-22 @ 06:53 UTC (46 minutes ago) Visual Flight Rules
Wind Visibility Clouds
180° at 16 knots 10 miles
Temperatures Readings
Current 12°C / 54°F
Dewpoint 6°C / 43°F
Humidity 67%
Altimeter 30.24" Hg
Pressure 1020.9 hPa
Elevation 1307
METAR KSNY 220653Z AUTO 18016KT 10SM CLR 12/06 A3024 RMK AO2 SLP209 T01170061 402330033
Observed Flight Rules
Sep-22 @ 06:53 UTC
(46 minutes ago)
VFR
Wind Visibility
180° at 16 knots 10 miles
Clouds
Temperature Dewpoint
12°C / 54°F 6°C / 43°F
Humidity Altimeter Pressure
67% 30.24" Hg 1020.9 hPa